Time;durP1;ratioP1;P1;durP2;ratioP2;P2;SDS_P1;SDS_P2;PMS_P1;PMS_P2;Temp;Humidity;BMP_temperature;BMP_pressure;BME280_temperature;BME280_humidity;BME280_pressure;Samples;Min_cycle;Max_cycle;Signal;HPM_P1;HPM_P2
2023/01/14 00:00:15;;;;;;;;;;;;;;;18.05;64.06;100380.67;2292821;77;50296;-76
2023/01/14 00:03:16;;;;;;;;;;;;;;;17.98;64.18;100380.26;2292564;76;50648;-76
2023/01/14 00:06:19;;;;;;;;;;;;;;;17.93;64.44;100381.32;2314493;75;51200;-76
2023/01/14 00:09:21;;;;;;;;;;;;;;;17.93;64.54;100384.00;2335980;74;50661;-76
2023/01/14 00:12:22;;;;;;;;;;;;;;;18.00;64.41;100377.72;2332102;76;51436;-76
2023/01/14 00:15:24;;;;;;;;;;;;;;;18.04;64.30;100391.06;2357849;73;51458;-77
2023/01/14 00:18:26;;;;;;;;;;;;;;;18.07;64.20;100396.56;2269345;77;53754;-76
2023/01/14 00:21:27;;;;;;;;;;;;;;;18.06;64.22;100397.08;2269153;76;51639;-77
2023/01/14 00:24:29;;;;;;;;;;;;;;;18.03;64.27;100401.47;2370470;74;50309;-75
2023/01/14 00:27:30;;;;;;;;;;;;;;;18.00;64.36;100404.48;2334041;75;51492;-77
2023/01/14 00:30:32;;;;;;;;;;;;;;;17.98;64.41;100405.69;2331986;75;51617;-76
2023/01/14 00:33:33;;;;;;;;;;;;;;;17.93;64.52;100408.95;2305557;75;50964;-76
2023/01/14 00:36:35;;;;;;;;;;;;;;;17.91;64.64;100406.95;2333209;75;51576;-77
2023/01/14 00:39:37;;;;;;;;;;;;;;;17.84;64.78;100414.88;2333360;75;51464;-76
2023/01/14 00:42:38;;;;;;;;;;;;;;;17.86;64.83;100414.70;2353776;75;51397;-76
2023/01/14 00:45:40;;;;;;;;;;;;;;;17.94;64.81;100420.48;2347017;75;51711;-76
2023/01/14 00:48:42;;;;;;;;;;;;;;;18.04;64.65;100416.50;2372895;74;53204;-76
2023/01/14 00:51:43;;;;;;;;;;;;;;;18.12;64.48;100421.45;2366166;74;50317;-77
2023/01/14 00:54:45;;;;;;;;;;;;;;;18.14;64.45;100423.44;2342540;74;50706;-76
2023/01/14 00:57:46;;;;;;;;;;;;;;;18.15;64.41;100435.80;2305505;76;52496;-77
2023/01/14 01:00:48;;;;;;;;;;;;;;;18.14;64.43;100440.33;2369288;75;53732;-77
2023/01/14 01:03:50;;;;;;;;;;;;;;;18.13;64.43;100443.18;2358178;73;51397;-75
2023/01/14 01:06:52;;;;;;;;;;;;;;;18.10;64.48;100444.89;2358514;75;50757;-76
2023/01/14 01:09:54;;;;;;;;;;;;;;;18.07;64.56;100458.14;2344420;75;51061;-77
2023/01/14 01:12:55;;;;;;;;;;;;;;;18.01;64.68;100450.34;2374332;73;50617;-77
2023/01/14 01:16:01;;;;;;;;;;;;;;;17.95;64.86;100455.08;2363146;75;51388;-76
2023/01/14 01:19:02;;;;;;;;;;;;;;;17.95;64.96;100452.91;2332097;76;52455;-79
2023/01/14 01:22:04;;;;;;;;;;;;;;;18.00;64.90;100462.05;2316801;74;52444;-76
2023/01/14 01:25:06;;;;;;;;;;;;;;;18.09;64.68;100456.63;2372461;74;51358;-76
2023/01/14 01:28:07;;;;;;;;;;;;;;;18.14;64.57;100454.23;2375092;74;50431;-75
2023/01/14 01:31:12;;;;;;;;;;;;;;;18.12;64.55;100459.76;2369929;74;51437;-76
2023/01/14 01:34:14;;;;;;;;;;;;;;;18.11;64.58;100462.12;2346855;75;52364;-75
2023/01/14 01:37:15;;;;;;;;;;;;;;;18.09;64.62;100471.36;2366430;74;50174;-76
2023/01/14 01:40:17;;;;;;;;;;;;;;;18.06;64.68;100468.54;2372111;74;50236;-76
2023/01/14 01:43:18;;;;;;;;;;;;;;;18.03;64.76;100472.41;2374441;75;50266;-76
2023/01/14 01:46:20;;;;;;;;;;;;;;;18.00;64.83;100475.95;2345139;74;51204;-76
2023/01/14 01:49:26;;;;;;;;;;;;;;;17.93;65.01;100479.88;2372330;75;51517;-76
2023/01/14 01:52:29;;;;;;;;;;;;;;;17.91;65.16;100485.92;2364377;74;50679;-76
2023/01/14 01:55:31;;;;;;;;;;;;;;;17.96;65.20;100496.91;2390503;74;51582;-76
2023/01/14 01:58:33;;;;;;;;;;;;;;;18.05;65.11;100497.13;2319645;75;52482;-76
2023/01/14 02:01:34;;;;;;;;;;;;;;;18.13;64.96;100494.05;2331944;75;51325;-77
2023/01/14 02:04:36;;;;;;;;;;;;;;;18.16;64.86;100492.34;2343211;75;51385;-76
2023/01/14 02:07:37;;;;;;;;;;;;;;;18.16;64.82;100495.88;2370032;75;51397;-76
2023/01/14 02:10:43;;;;;;;;;;;;;;;18.15;64.86;100508.09;2374483;74;50425;-76
2023/01/14 02:13:47;;;;;;;;;;;;;;;18.12;64.89;100514.65;2371936;73;50472;-76
2023/01/14 02:16:53;;;;;;;;;;;;;;;18.09;64.95;100519.55;2371511;75;52516;-76
2023/01/14 02:19:59;;;;;;;;;;;;;;;18.06;65.01;100527.44;2332126;73;50701;-77
2023/01/14 02:23:19;;;;;;;;;;;;;;;18.01;65.09;100532.52;2337051;73;51221;-77
2023/01/14 02:29:51;;;;;;;;;;;;;;;17.94;65.42;100534.25;2360199;73;22515;-76
2023/01/14 02:33:08;;;;;;;;;;;;;;;18.01;65.38;100527.16;2359207;74;51190;-75
2023/01/14 02:36:12;;;;;;;;;;;;;;;18.10;65.22;100537.27;2367905;74;51417;-75
2023/01/14 02:39:15;;;;;;;;;;;;;;;18.15;65.06;100550.43;2395292;74;54975;-76
2023/01/14 02:45:39;;;;;;;;;;;;;;;18.16;64.95;100558.81;2400285;73;22305;-75
2023/01/14 02:48:41;;;;;;;;;;;;;;;18.15;64.93;100550.94;2360387;74;50967;-76
2023/01/14 02:51:43;;;;;;;;;;;;;;;18.12;65.02;100554.81;2357375;75;50399;-76
2023/01/14 02:54:54;;;;;;;;;;;;;;;18.08;65.11;100550.83;2365804;73;51470;-76
2023/01/14 02:58:06;;;;;;;;;;;;;;;18.04;65.20;100540.17;2324189;74;51547;-75
2023/01/14 03:01:09;;;;;;;;;;;;;;;17.95;65.37;100547.43;2328058;75;51905;-76
2023/01/14 03:04:18;;;;;;;;;;;;;;;17.92;65.61;100549.14;2356294;74;50389;-77
2023/01/14 03:07:24;;;;;;;;;;;;;;;17.97;65.55;100550.77;2315955;74;52418;-77
2023/01/14 03:10:30;;;;;;;;;;;;;;;18.05;65.39;100557.38;2321346;75;50765;-77
2023/01/14 03:13:43;;;;;;;;;;;;;;;18.13;65.18;100538.23;2314151;75;50869;-76
2023/01/14 03:16:46;;;;;;;;;;;;;;;18.16;65.16;100545.90;2356982;75;51555;-77
2023/01/14 03:20:01;;;;;;;;;;;;;;;18.14;65.16;100546.61;2349959;75;50258;-76
2023/01/14 03:23:04;;;;;;;;;;;;;;;18.14;65.12;100549.30;2321987;76;50770;-77
2023/01/14 03:26:06;;;;;;;;;;;;;;;18.12;65.16;100553.98;2311534;76;49611;-75
2023/01/14 03:29:09;;;;;;;;;;;;;;;18.10;65.20;100570.23;2323220;76;50464;-76
2023/01/14 03:32:12;;;;;;;;;;;;;;;18.05;65.35;100577.97;2311962;76;51512;-76
2023/01/14 03:35:18;;;;;;;;;;;;;;;17.98;65.42;100585.91;2311042;76;51480;-76
2023/01/14 03:38:21;;;;;;;;;;;;;;;17.94;65.68;100583.77;2290770;77;52458;-76
2023/01/14 03:44:44;;;;;;;;;;;;;;;18.01;65.66;100597.59;2352508;74;25359;-76
2023/01/14 03:47:46;;;;;;;;;;;;;;;18.13;65.53;100601.16;2352326;75;51435;-75
2023/01/14 03:50:52;;;;;;;;;;;;;;;18.17;65.44;100593.11;2320376;75;52354;-76
2023/01/14 03:54:12;;;;;;;;;;;;;;;18.19;65.37;100600.45;2309278;75;50340;-76
2023/01/14 03:57:15;;;;;;;;;;;;;;;18.17;65.42;100612.67;2323198;76;51607;-76
2023/01/14 04:00:30;;;;;;;;;;;;;;;18.15;65.42;100612.02;2312139;76;51694;-75
2023/01/14 04:03:31;;;;;;;;;;;;;;;18.13;65.48;100606.52;2283649;76;52501;-76
2023/01/14 04:06:33;;;;;;;;;;;;;;;18.08;65.53;100608.39;2305494;77;51416;-76
2023/01/14 04:09:34;;;;;;;;;;;;;;;18.06;65.61;100617.14;2309942;77;50361;-75
2023/01/14 04:15:20;;;;;;;;;;;;;;;17.99;65.63;100611.66;2290436;76;50337;-76
2023/01/14 04:15:39;;;;;;;;;;;;;;;17.97;65.79;100612.85;2309393;76;22373;-76
2023/01/14 04:18:41;;;;;;;;;;;;;;;18.01;65.79;100615.51;2290895;77;50821;-75
2023/01/14 04:21:42;;;;;;;;;;;;;;;18.10;65.69;100613.58;2314399;75;51477;-75
2023/01/14 04:24:44;;;;;;;;;;;;;;;18.17;65.53;100618.55;2313740;75;51452;-74
2023/01/14 04:27:45;;;;;;;;;;;;;;;18.18;65.46;100624.22;2253322;77;52286;-75
2023/01/14 04:30:48;;;;;;;;;;;;;;;18.18;65.40;100629.06;2305590;77;51498;-75
2023/01/14 04:33:50;;;;;;;;;;;;;;;18.18;65.39;100630.91;2337799;74;50734;-75
2023/01/14 04:36:51;;;;;;;;;;;;;;;18.13;65.45;100623.41;2352325;75;50394;-75
2023/01/14 04:39:53;;;;;;;;;;;;;;;18.11;65.53;100633.98;2350630;75;50019;-75
2023/01/14 04:42:54;;;;;;;;;;;;;;;18.09;65.57;100628.00;2332011;75;51532;-76
2023/01/14 04:45:56;;;;;;;;;;;;;;;18.00;65.68;100632.56;2328695;75;51441;-76
2023/01/14 04:48:58;;;;;;;;;;;;;;;17.94;65.91;100635.45;2294223;75;51401;-75
2023/01/14 04:51:59;;;;;;;;;;;;;;;17.97;65.94;100644.47;2241903;76;52457;-75
2023/01/14 04:55:01;;;;;;;;;;;;;;;18.03;65.86;100630.86;2280524;76;50188;-75
2023/01/14 04:58:02;;;;;;;;;;;;;;;18.12;65.73;100633.81;2284826;77;50225;-76
2023/01/14 05:01:04;;;;;;;;;;;;;;;18.22;65.47;100642.94;2284463;78;50396;-76
2023/01/14 05:04:05;;;;;;;;;;;;;;;18.26;65.35;100645.56;2284577;76;51725;-75
2023/01/14 05:07:07;;;;;;;;;;;;;;;18.28;65.31;100654.26;2347473;75;51608;-75
2023/01/14 05:10:09;;;;;;;;;;;;;;;18.26;65.29;100656.28;2328598;75;51316;-74
2023/01/14 05:13:11;;;;;;;;;;;;;;;18.23;65.31;100657.98;2314511;76;51220;-75
2023/01/14 05:16:12;;;;;;;;;;;;;;;18.20;65.37;100657.02;2290728;77;50952;-75
2023/01/14 05:19:14;;;;;;;;;;;;;;;18.18;65.37;100659.86;2312560;77;51541;-75
2023/01/14 05:22:16;;;;;;;;;;;;;;;18.14;65.46;100653.73;2290360;76;50437;-75
2023/01/14 05:25:17;;;;;;;;;;;;;;;18.07;65.59;100660.30;2313584;76;50384;-75
2023/01/14 05:28:19;;;;;;;;;;;;;;;18.02;65.78;100658.14;2290875;77;51376;-75
2023/01/14 05:31:21;;;;;;;;;;;;;;;18.06;65.77;100667.50;2312542;77;51498;-75
2023/01/14 05:34:22;;;;;;;;;;;;;;;18.16;65.58;100669.08;2302649;75;51465;-75
2023/01/14 05:37:24;;;;;;;;;;;;;;;18.19;65.44;100665.56;2275772;76;51543;-75
2023/01/14 05:40:25;;;;;;;;;;;;;;;18.23;65.35;100672.72;2283918;76;52301;-75
2023/01/14 05:46:47;;;;;;;;;;;;;;;18.21;65.30;100674.73;2278898;75;22359;-75
2023/01/14 05:49:48;;;;;;;;;;;;;;;18.16;65.36;100676.64;2328618;75;51435;-75
2023/01/14 05:52:50;;;;;;;;;;;;;;;18.15;65.39;100678.14;2303096;75;50966;-75
2023/01/14 05:55:52;;;;;;;;;;;;;;;18.09;65.50;100677.02;2278769;77;51438;-75
2023/01/14 05:58:54;;;;;;;;;;;;;;;18.02;65.57;100678.23;2322468;75;52244;-75
2023/01/14 06:08:35;;;;;;;;;;;;;;;18.10;65.68;100684.03;2293796;76;22291;-76
2023/01/14 06:11:40;;;;;;;;;;;;;;;18.21;65.46;100703.71;2272604;77;49781;-75
2023/01/14 06:14:40;;;;;;;;;;;;;;;18.24;65.38;100697.99;2297329;75;22460;-75
2023/01/14 06:17:46;;;;;;;;;;;;;;;18.26;65.33;100700.47;2317918;75;52459;-75
2023/01/14 06:20:45;;;;;;;;;;;;;;;18.25;65.35;100706.85;2311913;75;22257;-75
2023/01/14 06:23:46;;;;;;;;;;;;;;;18.22;65.35;100715.25;2271378;75;50392;-75
2023/01/14 06:26:48;;;;;;;;;;;;;;;18.20;65.41;100707.90;2336903;75;50321;-76
2023/01/14 06:29:49;;;;;;;;;;;;;;;18.16;65.45;100715.95;2319119;75;49571;-76
2023/01/14 06:32:51;;;;;;;;;;;;;;;18.12;65.53;100713.31;2298632;76;50305;-75
2023/01/14 06:35:55;;;;;;;;;;;;;;;18.01;65.76;100719.41;2256343;77;50659;-76
2023/01/14 06:38:56;;;;;;;;;;;;;;;18.00;65.89;100723.59;2252897;78;22785;-75
2023/01/14 06:41:57;;;;;;;;;;;;;;;18.04;65.87;100720.39;2304485;75;52421;-75
2023/01/14 06:44:59;;;;;;;;;;;;;;;18.16;65.70;100721.30;2342476;75;49842;-76
2023/01/14 06:48:01;;;;;;;;;;;;;;;18.20;65.54;100710.58;2265989;77;50395;-78
2023/01/14 06:51:06;;;;;;;;;;;;;;;18.25;65.45;100723.75;2316184;76;49895;-76
2023/01/14 06:54:08;;;;;;;;;;;;;;;18.23;65.38;100722.27;2291741;76;52895;-75
2023/01/14 06:57:10;;;;;;;;;;;;;;;18.21;65.41;100728.30;2311821;75;50457;-75
2023/01/14 07:00:12;;;;;;;;;;;;;;;18.18;65.50;100727.32;2280251;77;50557;-76
2023/01/14 07:03:13;;;;;;;;;;;;;;;18.15;65.55;100729.02;2285769;76;52538;-76
2023/01/14 07:06:15;;;;;;;;;;;;;;;18.11;65.58;100732.58;2272421;75;51390;-76
2023/01/14 07:09:17;;;;;;;;;;;;;;;18.04;65.72;100728.94;2328612;75;50395;-76
2023/01/14 07:12:18;;;;;;;;;;;;;;;18.01;65.87;100726.11;2299096;75;50751;-75
2023/01/14 07:15:20;;;;;;;;;;;;;;;18.02;65.92;100733.11;2300865;76;51542;-74
2023/01/14 07:18:22;;;;;;;;;;;;;;;18.09;65.82;100732.42;2305032;75;52410;-76
2023/01/14 07:21:23;;;;;;;;;;;;;;;18.18;65.69;100728.66;2335920;75;50365;-74
2023/01/14 07:24:25;;;;;;;;;;;;;;;18.26;65.45;100729.45;2312408;75;50338;-74
2023/01/14 07:27:26;;;;;;;;;;;;;;;18.29;65.34;100728.27;2330688;76;50276;-76
2023/01/14 07:30:28;;;;;;;;;;;;;;;18.31;65.43;100736.93;2311193;76;51688;-75
2023/01/14 07:33:30;;;;;;;;;;;;;;;18.28;65.38;100731.42;2320911;75;51589;-75
2023/01/14 07:36:31;;;;;;;;;;;;;;;18.28;65.18;100721.22;2316989;75;51509;-77
2023/01/14 07:39:33;;;;;;;;;;;;;;;18.26;65.07;100725.92;2329224;75;52308;-76
2023/01/14 07:42:34;;;;;;;;;;;;;;;18.22;65.17;100723.28;2328874;75;51397;-76
2023/01/14 07:45:36;;;;;;;;;;;;;;;18.18;65.21;100719.28;2309684;75;50435;-77
2023/01/14 07:48:38;;;;;;;;;;;;;;;18.11;65.41;100712.48;2313092;77;51590;-76
2023/01/14 07:51:39;;;;;;;;;;;;;;;18.12;65.46;100713.31;2291720;76;51748;-76
2023/01/14 07:54:41;;;;;;;;;;;;;;;18.17;65.30;100717.12;2314308;76;50925;-76
2023/01/14 07:57:43;;;;;;;;;;;;;;;18.22;65.18;100715.25;2308738;75;51515;-73
2023/01/14 08:00:44;;;;;;;;;;;;;;;18.24;65.12;100718.08;2264720;77;52034;-73
2023/01/14 08:03:46;;;;;;;;;;;;;;;18.24;65.43;100711.38;2284684;76;50666;-75
2023/01/14 08:06:48;;;;;;;;;;;;;;;18.28;65.31;100711.33;2286790;76;50238;-74
2023/01/14 08:09:49;;;;;;;;;;;;;;;18.27;65.23;100722.25;2340111;75;50631;-74
2023/01/14 08:12:51;;;;;;;;;;;;;;;18.27;65.57;100722.25;2352369;74;50627;-75
2023/01/14 08:15:56;;;;;;;;;;;;;;;18.26;65.60;100721.90;2322415;75;51387;-76
2023/01/14 08:18:57;;;;;;;;;;;;;;;18.21;65.62;100721.13;2322514;75;51234;-75
2023/01/14 08:21:59;;;;;;;;;;;;;;;18.22;65.69;100721.95;2276977;75;50428;-75
2023/01/14 08:25:00;;;;;;;;;;;;;;;18.19;65.68;100720.46;2334552;74;52478;-74
2023/01/14 08:28:02;;;;;;;;;;;;;;;18.26;65.49;100713.38;2311700;76;50198;-75
2023/01/14 08:31:05;;;;;;;;;;;;;;;18.28;65.29;100711.33;2265276;77;51142;-75
2023/01/14 08:34:07;;;;;;;;;;;;;;;18.31;65.15;100714.67;2311180;76;51526;-74
2023/01/14 08:37:09;;;;;;;;;;;;;;;18.31;65.17;100706.64;2290907;77;51601;-76
2023/01/14 08:40:10;;;;;;;;;;;;;;;18.30;65.21;100704.47;2306430;75;51547;-74
2023/01/14 08:43:12;;;;;;;;;;;;;;;18.26;65.53;100700.47;2241334;76;51157;-73
2023/01/14 08:46:14;;;;;;;;;;;;;;;18.27;65.49;100706.17;2284499;76;50730;-74
2023/01/14 08:49:15;;;;;;;;;;;;;;;18.28;65.55;100705.15;2308596;75;50750;-74
2023/01/14 08:52:18;;;;;;;;;;;;;;;18.26;65.49;100716.55;2293657;76;50320;-74
2023/01/14 08:55:20;;;;;;;;;;;;;;;18.17;65.64;100706.41;2213004;77;52482;-74
2023/01/14 08:58:21;;;;;;;;;;;;;;;18.16;65.72;100711.93;2290318;76;51637;-74
2023/01/14 09:01:23;;;;;;;;;;;;;;;18.23;65.52;100715.56;2291149;77;51433;-74
2023/01/14 09:04:27;;;;;;;;;;;;;;;18.27;65.34;100718.23;2312587;76;52254;-74
2023/01/14 09:17:29;;;;;;;;;;;;;;;18.18;65.33;100720.11;2204861;80;25179;-74
2023/01/14 09:20:32;;;;;;;;;;;;;;;18.14;65.42;100724.69;2204636;80;52264;-74
2023/01/14 09:23:34;;;;;;;;;;;;;;;18.08;65.54;100728.06;2205748;79;50682;-74
2023/01/14 09:26:35;;;;;;;;;;;;;;;18.02;65.75;100726.93;2204405;79;51464;-74
2023/01/14 09:29:37;;;;;;;;;;;;;;;18.05;65.74;100732.75;2192250;79;50647;-74
2023/01/14 09:32:39;;;;;;;;;;;;;;;18.12;65.55;100722.17;2180147;80;52467;-74
2023/01/14 09:35:40;;;;;;;;;;;;;;;18.24;65.23;100725.28;2204763;80;50361;-74
2023/01/14 09:38:42;;;;;;;;;;;;;;;18.29;65.06;100729.60;2207977;80;50342;-74
2023/01/14 09:41:51;;;;;;;;;;;;;;;18.31;65.00;100715.50;2177892;80;50301;-75
2023/01/14 09:44:54;;;;;;;;;;;;;;;18.32;65.02;100713.68;2235460;77;51521;-75
2023/01/14 09:47:56;;;;;;;;;;;;;;;18.31;64.97;100720.86;2295140;75;50737;-74
2023/01/14 09:51:16;;;;;;;;;;;;;;;18.31;64.93;100705.30;2352357;75;50428;-74
2023/01/14 09:54:19;;;;;;;;;;;;;;;18.30;64.90;100702.30;2300724;76;51494;-74
2023/01/14 09:57:22;;;;;;;;;;;;;;;18.28;65.02;100695.27;2278189;75;52513;-75
2023/01/14 10:00:34;;;;;;;;;;;;;;;18.27;65.10;100690.10;2274101;78;51448;-74
2023/01/14 10:03:40;;;;;;;;;;;;;;;18.27;65.19;100689.59;2307142;76;51611;-76
2023/01/14 10:06:43;;;;;;;;;;;;;;;18.32;65.11;100678.86;2327926;76;51485;-75
2023/01/14 10:09:46;;;;;;;;;;;;;;;18.33;65.01;100680.00;2278125;76;50166;-75
2023/01/14 10:12:48;;;;;;;;;;;;;;;18.41;64.85;100670.55;2338976;75;51534;-78
2023/01/14 10:15:50;;;;;;;;;;;;;;;18.39;65.03;100660.51;2336775;75;50667;-75
2023/01/14 10:19:10;;;;;;;;;;;;;;;18.39;65.03;100651.13;2284995;78;50317;-73
2023/01/14 10:22:22;;;;;;;;;;;;;;;18.39;64.82;100646.29;2260967;77;51782;-76
2023/01/14 10:25:24;;;;;;;;;;;;;;;18.36;64.92;100638.11;2283347;76;50317;-76
2023/01/14 10:28:27;;;;;;;;;;;;;;;18.32;64.98;100638.67;2284619;78;50232;-76
2023/01/14 10:31:29;;;;;;;;;;;;;;;18.28;64.99;100627.47;2284763;76;51435;-76
2023/01/14 10:34:32;;;;;;;;;;;;;;;18.19;65.19;100620.03;2310614;75;50749;-78
2023/01/14 10:37:34;;;;;;;;;;;;;;;18.20;65.20;100615.50;2296506;76;51744;-77
2023/01/14 10:40:35;;;;;;;;;;;;;;;18.26;65.01;100610.27;2288594;76;51484;-75
2023/01/14 10:43:44;;;;;;;;;;;;;;;18.31;64.89;100615.56;2256685;77;51507;-76
2023/01/14 10:46:46;;;;;;;;;;;;;;;18.30;64.83;100617.42;2256483;78;52499;-76
2023/01/14 10:49:52;;;;;;;;;;;;;;;18.28;64.90;100615.42;2237468;78;51015;-76
2023/01/14 10:52:54;;;;;;;;;;;;;;;18.26;64.88;100608.07;2247532;78;51524;-76
2023/01/14 10:55:57;;;;;;;;;;;;;;;18.23;64.92;100597.72;2242058;79;51422;-76
2023/01/14 10:58:58;;;;;;;;;;;;;;;18.19;64.98;100587.89;2242004;79;50286;-76
2023/01/14 11:02:00;;;;;;;;;;;;;;;18.16;65.02;100572.67;2247425;75;51187;-76
2023/01/14 11:05:02;;;;;;;;;;;;;;;18.08;65.24;100591.50;2303244;76;50359;-76
2023/01/14 11:08:23;;;;;;;;;;;;;;;18.08;65.27;100580.28;2310847;75;51425;-76
2023/01/14 11:11:25;;;;;;;;;;;;;;;18.15;65.09;100579.06;2286115;77;50747;-75
2023/01/14 11:14:28;;;;;;;;;;;;;;;18.22;64.91;100571.45;2261055;77;49642;-75
2023/01/14 11:17:31;;;;;;;;;;;;;;;18.32;64.65;100564.50;2285064;78;50262;-76
2023/01/14 11:20:32;;;;;;;;;;;;;;;18.36;64.47;100554.23;2284894;78;51486;-76
2023/01/14 11:23:35;;;;;;;;;;;;;;;18.39;64.39;100549.84;2296032;76;51473;-75
2023/01/14 11:26:37;;;;;;;;;;;;;;;18.40;64.30;100554.20;2319199;75;52613;-76
2023/01/14 11:29:41;;;;;;;;;;;;;;;18.38;64.19;100538.82;2361092;75;51561;-77
2023/01/14 11:32:45;;;;;;;;;;;;;;;18.37;64.14;100538.48;2343396;75;51433;-76
2023/01/14 11:35:47;;;;;;;;;;;;;;;18.33;64.18;100534.01;2296037;76;22326;-77
2023/01/14 11:38:49;;;;;;;;;;;;;;;18.29;64.28;100515.33;2294956;76;51707;-75
2023/01/14 11:41:50;;;;;;;;;;;;;;;18.25;64.36;100520.71;2314441;76;51417;-76
2023/01/14 11:44:58;;;;;;;;;;;;;;;18.24;64.38;100505.16;2312742;76;52241;-73
2023/01/14 11:48:00;;;;;;;;;;;;;;;18.33;64.42;100505.88;2312798;77;51541;-75
2023/01/14 11:51:02;;;;;;;;;;;;;;;18.36;64.62;100499.33;2265493;77;52489;-74
2023/01/14 11:54:04;;;;;;;;;;;;;;;18.50;64.47;100492.62;2315860;75;50318;-75
2023/01/14 11:57:08;;;;;;;;;;;;;;;18.45;64.68;100495.03;2328967;75;50619;-75
2023/01/14 12:00:11;;;;;;;;;;;;;;;18.48;64.86;100482.59;2352724;75;51566;-75
2023/01/14 12:03:15;;;;;;;;;;;;;;;18.52;64.97;100475.52;2296306;76;51749;-73
2023/01/14 12:06:18;;;;;;;;;;;;;;;18.52;65.15;100461.61;2341988;75;51439;-73
2023/01/14 12:09:23;;;;;;;;;;;;;;;18.50;65.16;100448.42;2332615;75;50197;-74
2023/01/14 12:12:29;;;;;;;;;;;;;;;18.55;65.12;100448.34;2321300;76;51472;-73
2023/01/14 12:19:14;;;;;;;;;;;;;;;18.54;65.41;100428.77;2286211;77;22312;-74
2023/01/14 12:22:23;;;;;;;;;;;;;;;18.55;65.29;100417.05;2288784;77;51351;-72
2023/01/14 12:25:32;;;;;;;;;;;;;;;18.49;65.36;100414.59;2272479;75;52570;-73
2023/01/14 12:28:35;;;;;;;;;;;;;;;18.47;65.47;100416.65;2330013;75;49466;-73
2023/01/14 12:31:38;;;;;;;;;;;;;;;18.50;65.85;100410.91;2352387;75;51511;-76
2023/01/14 12:34:41;;;;;;;;;;;;;;;18.53;65.60;100397.64;2352229;75;52363;-75
2023/01/14 12:37:46;;;;;;;;;;;;;;;18.46;65.79;100383.34;2309846;75;50104;-76
2023/01/14 12:47:28;;;;;;;;;;;;;;;18.45;65.92;100358.91;2284414;75;22364;-75
2023/01/14 12:50:30;;;;;;;;;;;;;;;18.42;65.91;100354.77;2276780;77;51403;-76
2023/01/14 12:53:36;;;;;;;;;;;;;;;18.43;65.92;100344.36;2279216;76;51701;-75
2023/01/14 12:56:42;;;;;;;;;;;;;;;18.48;66.01;100329.06;2329725;75;50706;-75
2023/01/14 12:59:45;;;;;;;;;;;;;;;18.46;65.76;100321.20;2292564;76;50399;-74
2023/01/14 13:02:47;;;;;;;;;;;;;;;18.46;66.12;100301.11;2312521;76;51486;-75
2023/01/14 13:05:49;;;;;;;;;;;;;;;18.45;66.39;100294.11;2290746;76;51307;-75
2023/01/14 13:08:51;;;;;;;;;;;;;;;18.37;66.36;100275.48;2312894;75;50303;-75
2023/01/14 13:11:52;;;;;;;;;;;;;;;18.37;66.32;100274.63;2312664;77;51627;-75
2023/01/14 13:14:55;;;;;;;;;;;;;;;18.36;66.64;100256.91;2312646;76;50593;-74
2023/01/14 13:17:57;;;;;;;;;;;;;;;18.38;66.59;100264.25;2288507;76;51174;-74
2023/01/14 13:20:59;;;;;;;;;;;;;;;18.31;66.38;100257.47;2272262;78;51653;-74
2023/01/14 13:24:02;;;;;;;;;;;;;;;18.20;66.58;100252.63;2249844;78;50761;-73
2023/01/14 13:27:05;;;;;;;;;;;;;;;18.22;66.63;100242.05;2292886;77;51540;-73
2023/01/14 13:30:08;;;;;;;;;;;;;;;18.35;66.55;100244.03;2312911;77;51419;-72
2023/01/14 13:33:32;;;;;;;;;;;;;;;18.34;66.56;100238.37;2289501;76;51362;-74
2023/01/14 13:36:29;;;;;;;;;;;;;;;18.33;66.40;100232.67;2312004;75;22334;-72
2023/01/14 13:39:31;;;;;;;;;;;;;;;18.32;66.27;100228.35;2272340;78;51588;-73
2023/01/14 13:42:38;;;;;;;;;;;;;;;18.33;66.14;100225.16;2282194;77;51442;-73
2023/01/14 13:45:36;;;;;;;;;;;;;;;18.27;66.21;100217.38;2314791;75;22431;-74
2023/01/14 13:48:38;;;;;;;;;;;;;;;18.19;66.25;100208.14;2319998;76;51343;-74
2023/01/14 13:51:41;;;;;;;;;;;;;;;18.16;66.38;100193.77;2288253;77;50438;-74
2023/01/14 13:54:43;;;;;;;;;;;;;;;18.14;66.43;100197.17;2296498;75;52451;-73
2023/01/14 13:57:49;;;;;;;;;;;;;;;18.15;66.34;100182.76;2313165;75;51677;-73
2023/01/14 14:00:49;;;;;;;;;;;;;;;18.09;66.55;100177.66;2287777;75;22377;-74
2023/01/14 14:03:51;;;;;;;;;;;;;;;18.14;66.62;100171.73;2303801;75;50725;-74
2023/01/14 14:06:53;;;;;;;;;;;;;;;18.16;66.62;100162.50;2283697;76;49566;-74
2023/01/14 14:09:54;;;;;;;;;;;;;;;18.18;66.53;100155.59;2310080;75;50278;-73
2023/01/14 14:16:19;;;;;;;;;;;;;;;18.16;66.48;100145.09;2311461;76;22469;-74
2023/01/14 14:19:21;;;;;;;;;;;;;;;18.15;66.52;100136.72;2302468;75;51762;-74
2023/01/14 14:22:34;;;;;;;;;;;;;;;18.16;66.65;100123.67;2307886;75;50360;-75
2023/01/14 14:25:36;;;;;;;;;;;;;;;18.16;66.70;100117.45;2298313;75;22504;-75
2023/01/14 14:28:38;;;;;;;;;;;;;;;18.17;66.81;100117.80;2312680;76;50138;-73
2023/01/14 14:31:39;;;;;;;;;;;;;;;18.15;66.64;100111.28;2310086;76;51626;-73
2023/01/14 14:34:42;;;;;;;;;;;;;;;18.17;66.65;100105.75;2322121;75;50725;-73
2023/01/14 14:37:50;;;;;;;;;;;;;;;18.20;66.77;100102.67;2288324;76;50284;-73
2023/01/14 14:40:52;;;;;;;;;;;;;;;18.21;66.74;100087.77;2327531;75;51441;-73
2023/01/14 14:43:58;;;;;;;;;;;;;;;18.21;66.78;100089.11;2302051;75;52358;-73
2023/01/14 14:47:18;;;;;;;;;;;;;;;18.26;66.88;100086.67;2298566;75;50425;-74
2023/01/14 14:50:32;;;;;;;;;;;;;;;18.33;66.44;100092.06;2302609;76;51608;-74
2023/01/14 14:53:35;;;;;;;;;;;;;;;18.30;66.31;100080.41;2309929;76;51514;-76
2023/01/14 14:56:37;;;;;;;;;;;;;;;18.26;66.41;100071.09;2295793;75;51266;-75
2023/01/14 14:59:38;;;;;;;;;;;;;;;18.28;66.44;100067.72;2349297;75;49941;-74
2023/01/14 15:02:40;;;;;;;;;;;;;;;18.29;66.38;100054.66;2352142;75;50341;-74
2023/01/14 15:05:42;;;;;;;;;;;;;;;18.25;66.38;100054.72;2352453;75;51019;-74
2023/01/14 15:08:45;;;;;;;;;;;;;;;18.26;66.28;100045.66;2298818;75;50408;-74
2023/01/14 15:11:47;;;;;;;;;;;;;;;18.26;66.19;100037.62;2311258;75;50230;-74
2023/01/14 15:14:56;;;;;;;;;;;;;;;18.32;65.96;100037.37;2301153;76;51625;-73
2023/01/14 15:17:58;;;;;;;;;;;;;;;18.31;65.92;100029.82;2294858;76;50264;-75
2023/01/14 15:21:00;;;;;;;;;;;;;;;18.28;66.01;100023.53;2292242;75;52539;-74
2023/01/14 15:24:02;;;;;;;;;;;;;;;18.29;65.84;100006.45;2319739;75;51539;-74
2023/01/14 15:27:04;;;;;;;;;;;;;;;18.23;65.93;100003.20;2311995;76;50668;-74
2023/01/14 15:30:16;;;;;;;;;;;;;;;18.16;66.14;99990.27;2276281;76;50269;-74
2023/01/14 15:33:25;;;;;;;;;;;;;;;18.11;66.27;99983.34;2214552;77;49641;-75
2023/01/14 15:36:27;;;;;;;;;;;;;;;18.11;66.28;99967.28;2267546;77;51581;-75
2023/01/14 15:39:29;;;;;;;;;;;;;;;18.13;66.18;99959.36;2269474;78;50372;-75
2023/01/14 15:42:30;;;;;;;;;;;;;;;18.21;65.99;99958.38;2270779;77;50354;-75
2023/01/14 15:45:32;;;;;;;;;;;;;;;18.36;65.54;99959.60;2258093;78;52304;-75
2023/01/14 15:48:35;;;;;;;;;;;;;;;18.46;65.38;99954.70;2271869;77;50384;-75
2023/01/14 15:51:39;;;;;;;;;;;;;;;18.46;65.23;99939.97;2306872;75;50321;-76
2023/01/14 15:54:43;;;;;;;;;;;;;;;18.48;65.00;99940.09;2298804;76;51508;-75
2023/01/14 15:57:44;;;;;;;;;;;;;;;18.45;64.99;99941.83;2288223;76;22847;-75
2023/01/14 16:00:46;;;;;;;;;;;;;;;18.43;64.98;99939.86;2322238;76;50141;-73
2023/01/14 16:03:48;;;;;;;;;;;;;;;18.40;64.98;99932.75;2305155;76;51425;-74
2023/01/14 16:06:50;;;;;;;;;;;;;;;18.41;65.00;99928.52;2309668;76;50689;-73
2023/01/14 16:09:59;;;;;;;;;;;;;;;18.36;65.16;99922.92;2290809;77;51643;-75
2023/01/14 16:13:01;;;;;;;;;;;;;;;18.33;65.40;99917.97;2299656;75;50391;-74
2023/01/14 16:16:02;;;;;;;;;;;;;;;18.34;65.44;99915.63;2310293;75;50271;-75
2023/01/14 16:19:04;;;;;;;;;;;;;;;18.37;65.27;99912.55;2318635;75;50363;-74
2023/01/14 16:22:05;;;;;;;;;;;;;;;18.38;65.78;99908.83;2280395;76;50385;-74
2023/01/14 16:25:07;;;;;;;;;;;;;;;18.39;65.77;99893.58;2290378;77;50615;-73